createdAt,value
2022-12-05T00:01:46.084Z,31.10
2022-12-05T00:04:14.689Z,29.90
2022-12-05T00:06:43.273Z,27.50
2022-12-05T00:09:13.111Z,27.40
2022-12-05T00:11:43.080Z,27.70
2022-12-05T00:14:12.907Z,29.10
2022-12-05T00:16:43.095Z,29.30
2022-12-05T00:19:15.238Z,28.50
2022-12-05T00:21:44.031Z,29.80
2022-12-05T00:24:15.502Z,30.30
2022-12-05T00:26:44.099Z,30.40
2022-12-05T00:29:12.550Z,29.60
2022-12-05T00:31:40.560Z,30.60
2022-12-05T00:34:08.816Z,30.90
2022-12-05T00:36:37.250Z,30.90
2022-12-05T00:39:11.464Z,34.00
2022-12-05T00:41:39.266Z,36.80
2022-12-05T00:44:07.517Z,37.60
2022-12-05T00:46:36.249Z,39.10
2022-12-05T00:49:05.797Z,37.20
2022-12-05T00:51:40.497Z,35.20
2022-12-05T00:54:15.007Z,33.30
2022-12-05T00:56:44.167Z,31.70
2022-12-05T00:59:17.189Z,30.80
2022-12-05T01:01:47.317Z,29.60
2022-12-05T01:04:23.993Z,30.00
2022-12-05T01:06:55.987Z,29.10
2022-12-05T01:09:25.225Z,29.20
2022-12-05T01:11:53.563Z,30.30
2022-12-05T01:14:24.469Z,31.00
2022-12-05T01:16:54.818Z,30.40
2022-12-05T01:19:32.945Z,29.30
2022-12-05T01:22:00.832Z,28.10
2022-12-05T01:24:29.564Z,28.20
2022-12-05T01:26:57.923Z,29.60
2022-12-05T01:29:26.435Z,30.50
2022-12-05T01:31:54.875Z,29.40
2022-12-05T01:34:22.987Z,29.10
2022-12-05T01:36:50.976Z,30.30
2022-12-05T01:39:19.100Z,29.50
2022-12-05T01:41:49.655Z,29.70
2022-12-05T01:44:17.409Z,29.50
2022-12-05T01:46:50.749Z,31.20
2022-12-05T01:49:41.630Z,31.60
2022-12-05T01:52:18.226Z,32.60
2022-12-05T01:54:48.603Z,32.50
2022-12-05T01:57:16.629Z,33.30
2022-12-05T01:59:49.343Z,35.10
2022-12-05T02:02:18.183Z,31.30
2022-12-05T02:04:58.359Z,31.60
2022-12-05T02:07:26.769Z,31.70
2022-12-05T02:09:54.639Z,31.50
2022-12-05T02:12:23.810Z,31.50
2022-12-05T02:15:12.800Z,30.90
2022-12-05T02:17:52.838Z,33.00
2022-12-05T02:20:39.247Z,32.00
2022-12-05T02:23:19.128Z,32.60
2022-12-05T02:26:35.093Z,31.20
2022-12-05T02:29:21.470Z,31.00
2022-12-05T02:32:09.482Z,31.20
2022-12-05T02:34:58.762Z,31.40
2022-12-05T02:37:32.548Z,31.50
2022-12-05T02:40:32.255Z,31.30
2022-12-05T02:43:38.244Z,29.00
2022-12-05T02:46:14.273Z,32.00
2022-12-05T02:48:45.875Z,32.70
2022-12-05T02:51:18.626Z,34.60
2022-12-05T02:53:49.523Z,33.20
2022-12-05T02:56:18.193Z,31.90
2022-12-05T02:58:54.464Z,32.60
2022-12-05T03:01:25.655Z,34.70
2022-12-05T03:03:55.685Z,34.40
2022-12-05T03:06:34.805Z,37.70
2022-12-05T03:09:06.828Z,38.40
2022-12-05T03:11:41.377Z,38.10
2022-12-05T03:14:14.813Z,39.40
2022-12-05T03:16:50.348Z,40.30
2022-12-05T03:19:25.163Z,45.00
2022-12-05T03:22:01.236Z,44.90
2022-12-05T03:24:30.611Z,41.00
2022-12-05T03:27:07.947Z,42.40
2022-12-05T03:29:47.426Z,43.00
2022-12-05T03:32:18.073Z,42.00
2022-12-05T03:34:55.501Z,42.70
2022-12-05T03:37:52.441Z,43.10
2022-12-05T03:40:43.679Z,41.90
2022-12-05T03:43:17.361Z,42.40
2022-12-05T03:48:30.171Z,41.90
2022-12-05T03:50:59.537Z,46.80
2022-12-05T03:53:39.262Z,43.70
2022-12-05T03:56:14.529Z,44.20
2022-12-05T03:58:49.531Z,43.10
2022-12-05T04:01:19.750Z,43.70
2022-12-05T04:03:54.039Z,45.00
2022-12-05T04:06:28.694Z,41.60
2022-12-05T04:09:03.078Z,43.30
2022-12-05T04:11:35.568Z,42.40
2022-12-05T04:14:18.478Z,42.40
2022-12-05T04:17:03.809Z,40.40
2022-12-05T04:20:11.125Z,39.20
2022-12-05T04:22:40.178Z,42.50
2022-12-05T04:25:31.169Z,46.00
2022-12-05T04:28:34.592Z,40.90
2022-12-05T04:31:19.256Z,41.60
2022-12-05T04:33:54.806Z,40.20
2022-12-05T04:36:29.988Z,42.00
2022-12-05T04:39:05.534Z,42.10
2022-12-05T04:41:56.817Z,40.50
2022-12-05T04:44:29.475Z,39.40
2022-12-05T04:47:01.970Z,38.70
2022-12-05T04:49:32.477Z,39.30
2022-12-05T04:52:05.324Z,37.50
2022-12-05T04:55:00.002Z,41.10
2022-12-05T04:57:33.445Z,37.40
2022-12-05T05:00:01.598Z,37.90
2022-12-05T05:02:39.285Z,36.90
2022-12-05T05:05:14.156Z,36.40
2022-12-05T05:07:50.934Z,36.40
2022-12-05T05:10:48.408Z,36.20
2022-12-05T05:13:16.207Z,38.40
2022-12-05T05:15:44.033Z,38.00
2022-12-05T05:18:11.883Z,38.30
2022-12-05T05:20:39.818Z,37.50
2022-12-05T05:23:07.909Z,37.20
2022-12-05T05:25:36.031Z,39.00
2022-12-05T05:28:03.965Z,38.80
2022-12-05T05:30:31.951Z,39.50
2022-12-05T05:33:00.512Z,39.00
2022-12-05T05:35:28.584Z,40.20
2022-12-05T05:37:56.499Z,38.90
2022-12-05T05:40:24.232Z,39.30
2022-12-05T05:42:51.996Z,38.00
2022-12-05T05:45:19.812Z,39.70
2022-12-05T05:47:50.440Z,39.00
2022-12-05T05:50:21.664Z,40.10
2022-12-05T05:52:49.951Z,37.70
2022-12-05T05:55:18.214Z,38.00
2022-12-05T05:57:46.266Z,36.90
2022-12-05T06:00:15.003Z,37.10
2022-12-05T06:02:42.963Z,36.00
2022-12-05T06:05:10.891Z,35.10
2022-12-05T06:07:38.726Z,38.20
2022-12-05T06:10:07.213Z,35.40
2022-12-05T06:12:35.025Z,36.20
2022-12-05T06:15:03.011Z,39.40
2022-12-05T06:17:30.809Z,38.60
2022-12-05T06:19:58.825Z,37.90
2022-12-05T06:22:26.789Z,40.10
2022-12-05T06:24:54.863Z,39.40
2022-12-05T06:27:22.634Z,37.50
2022-12-05T06:29:50.600Z,40.20
2022-12-05T06:32:18.443Z,38.60
2022-12-05T06:34:46.267Z,38.70
2022-12-05T06:37:14.116Z,39.60
2022-12-05T06:39:41.955Z,38.70
2022-12-05T06:42:09.784Z,39.10
2022-12-05T06:44:37.707Z,41.60
2022-12-05T06:47:05.582Z,42.20
2022-12-05T06:49:37.696Z,40.70
2022-12-05T06:52:06.000Z,43.30
2022-12-05T06:54:33.813Z,45.10
2022-12-05T06:57:01.816Z,42.20
2022-12-05T06:59:29.562Z,42.90
2022-12-05T07:01:57.566Z,46.80
2022-12-05T07:04:25.449Z,47.70
2022-12-05T07:06:55.545Z,48.40
2022-12-05T07:09:44.880Z,47.50
2022-12-05T07:12:13.718Z,44.30
2022-12-05T07:14:50.006Z,50.70
2022-12-05T07:17:19.864Z,47.10
2022-12-05T07:19:51.879Z,48.10
2022-12-05T07:22:21.514Z,44.00
2022-12-05T07:24:52.082Z,45.40
2022-12-05T07:27:26.569Z,44.60
2022-12-05T07:29:56.173Z,46.30
2022-12-05T07:32:24.250Z,48.00
2022-12-05T07:34:55.272Z,46.10
2022-12-05T07:37:23.960Z,47.10
2022-12-05T07:39:53.103Z,44.20
2022-12-05T07:42:20.956Z,46.10
2022-12-05T07:44:48.738Z,45.80
2022-12-05T07:47:16.578Z,44.70
2022-12-05T07:49:44.442Z,46.20
2022-12-05T07:52:12.206Z,47.10
2022-12-05T07:54:39.961Z,46.20
2022-12-05T07:57:07.836Z,48.40
2022-12-05T07:59:35.600Z,44.00
2022-12-05T08:02:03.653Z,45.20
2022-12-05T08:04:31.575Z,44.30
2022-12-05T08:06:59.369Z,43.60
2022-12-05T08:09:27.657Z,47.10
2022-12-05T08:11:55.496Z,43.20
2022-12-05T08:14:23.347Z,44.90
2022-12-05T08:16:51.288Z,45.10
2022-12-05T08:19:19.378Z,44.30
2022-12-05T08:21:47.328Z,46.50
2022-12-05T08:24:15.188Z,45.70
2022-12-05T08:26:43.024Z,44.50
2022-12-05T08:29:15.081Z,43.90
2022-12-05T08:31:47.308Z,42.30
2022-12-05T08:34:17.731Z,42.50
2022-12-05T08:36:46.100Z,44.60
2022-12-05T08:39:17.044Z,42.80
2022-12-05T08:41:46.128Z,46.50
2022-12-05T08:44:17.057Z,44.60
2022-12-05T08:46:47.633Z,42.20
2022-12-05T08:49:16.464Z,44.20
2022-12-05T08:51:45.124Z,43.10
2022-12-05T08:54:13.384Z,43.10
2022-12-05T08:56:41.254Z,59.40
2022-12-05T08:59:09.138Z,55.40
2022-12-05T09:01:39.397Z,45.30
2022-12-05T09:04:08.450Z,49.40
2022-12-05T09:06:36.802Z,49.90
2022-12-05T09:09:07.714Z,45.70
2022-12-05T09:11:40.913Z,47.10
2022-12-05T09:14:08.861Z,45.10
2022-12-05T09:16:39.786Z,44.50
2022-12-05T09:19:14.731Z,40.50
2022-12-05T09:21:43.303Z,39.00
2022-12-05T09:24:13.244Z,39.30
2022-12-05T09:26:41.934Z,45.20
2022-12-05T09:29:16.129Z,43.40
2022-12-05T09:31:47.839Z,43.70
2022-12-05T09:34:18.023Z,41.10
2022-12-05T09:36:55.770Z,43.40
2022-12-05T09:39:26.391Z,43.50
2022-12-05T09:42:18.649Z,46.60
2022-12-05T09:44:52.145Z,42.30
2022-12-05T09:47:29.063Z,42.10
2022-12-05T09:50:14.342Z,38.20
2022-12-05T09:52:54.003Z,42.00
2022-12-05T09:55:22.196Z,44.10
2022-12-05T09:57:57.709Z,48.50
2022-12-05T10:00:29.416Z,45.30
2022-12-05T10:03:05.065Z,45.70
2022-12-05T10:05:47.324Z,47.00
2022-12-05T10:08:22.658Z,43.70
2022-12-05T10:10:56.736Z,42.20
2022-12-05T10:13:38.167Z,39.00
2022-12-05T10:16:14.020Z,39.70
2022-12-05T10:18:54.170Z,40.10
2022-12-05T10:21:33.301Z,39.80
2022-12-05T10:24:04.677Z,40.30
2022-12-05T10:27:20.419Z,44.20
2022-12-05T10:29:58.318Z,48.60
2022-12-05T10:32:33.273Z,48.90
2022-12-05T10:35:15.902Z,46.40
2022-12-05T10:37:50.017Z,45.10
2022-12-05T10:40:18.247Z,43.60
2022-12-05T10:42:48.367Z,45.60
2022-12-05T10:45:20.459Z,44.50
2022-12-05T10:47:49.994Z,41.40
2022-12-05T10:50:24.120Z,48.50
2022-12-05T10:52:54.041Z,47.10
2022-12-05T10:55:22.117Z,45.60
2022-12-05T10:58:14.088Z,48.60
2022-12-05T11:00:49.227Z,35.30
2022-12-05T11:03:23.534Z,40.70
2022-12-05T11:09:24.172Z,28.60
2022-12-05T11:12:14.436Z,29.50
2022-12-05T11:14:57.242Z,27.70
2022-12-05T11:17:29.643Z,24.30
2022-12-05T11:19:56.450Z,16.10
2022-12-05T11:22:34.929Z,12.70
2022-12-05T11:25:25.121Z,11.90
2022-12-05T11:27:52.090Z,13.10
2022-12-05T11:30:21.744Z,11.40
2022-12-05T11:32:49.481Z,12.70
2022-12-05T11:35:15.920Z,12.60
2022-12-05T11:37:56.063Z,11.50
2022-12-05T11:40:38.397Z,8.90
2022-12-05T11:43:39.948Z,11.70
2022-12-05T11:46:09.225Z,12.00
2022-12-05T11:48:51.109Z,12.50
2022-12-05T11:51:38.548Z,12.80
2022-12-05T11:54:56.285Z,17.40
2022-12-05T11:57:25.489Z,21.60
2022-12-05T12:00:13.413Z,18.20
2022-12-05T12:02:58.512Z,16.60
2022-12-05T12:05:46.430Z,15.60
2022-12-05T12:08:49.268Z,15.20
2022-12-05T12:11:28.128Z,16.30
2022-12-05T12:14:18.920Z,18.30
2022-12-05T12:17:03.556Z,19.00
2022-12-05T12:19:45.489Z,12.40
2022-12-05T12:22:42.237Z,12.40
2022-12-05T12:25:41.333Z,14.00
2022-12-05T12:28:29.467Z,10.20
2022-12-05T12:31:23.898Z,11.80
2022-12-05T12:36:49.997Z,10.60
2022-12-05T12:39:25.019Z,11.50
2022-12-05T12:42:10.865Z,11.30
2022-12-05T12:44:52.702Z,10.70
2022-12-05T12:47:33.307Z,11.50
2022-12-05T12:50:22.965Z,11.80
2022-12-05T12:52:57.394Z,11.90
2022-12-05T12:55:47.586Z,12.40
2022-12-05T12:58:52.432Z,14.30
2022-12-05T13:01:33.296Z,12.40
2022-12-05T13:04:11.631Z,11.70
2022-12-05T13:06:48.180Z,12.80
2022-12-05T13:09:23.713Z,14.30
2022-12-05T13:11:53.569Z,16.50
2022-12-05T13:14:24.534Z,14.90
2022-12-05T13:16:53.950Z,14.10
2022-12-05T13:19:42.186Z,14.90
2022-12-05T13:22:10.354Z,20.00
2022-12-05T13:24:36.885Z,15.40
2022-12-05T13:27:14.732Z,19.70
2022-12-05T13:29:47.792Z,16.70
2022-12-05T13:32:43.072Z,15.20
2022-12-05T13:35:13.669Z,12.10
2022-12-05T13:38:06.601Z,11.40
2022-12-05T13:40:55.571Z,14.10
2022-12-05T13:43:26.342Z,14.80
2022-12-05T13:46:22.107Z,15.30
2022-12-05T13:48:49.392Z,16.20
2022-12-05T13:51:30.488Z,17.60
2022-12-05T13:54:19.559Z,13.90
2022-12-05T13:56:50.249Z,15.40
2022-12-05T13:59:54.924Z,18.80
2022-12-05T14:02:44.755Z,19.50
2022-12-05T14:05:17.916Z,21.40
2022-12-05T14:07:48.563Z,21.90
2022-12-05T14:10:44.367Z,22.60
2022-12-05T14:13:16.986Z,22.10
2022-12-05T14:15:45.339Z,37.50
2022-12-05T14:18:37.395Z,62.80
2022-12-05T14:21:33.808Z,54.80
2022-12-05T14:24:06.386Z,51.90
2022-12-05T14:27:06.759Z,48.70
2022-12-05T14:30:09.697Z,48.90
2022-12-05T14:32:41.926Z,47.20
2022-12-05T14:35:18.908Z,49.40
2022-12-05T14:38:15.830Z,47.00
2022-12-05T14:40:43.895Z,45.80
2022-12-05T14:43:20.277Z,49.20
2022-12-05T14:45:49.787Z,48.90
2022-12-05T14:48:16.166Z,51.40
2022-12-05T14:50:44.351Z,52.80
2022-12-05T14:53:15.016Z,52.90
2022-12-05T14:55:47.278Z,59.70
2022-12-05T14:58:21.125Z,56.40
2022-12-05T15:00:59.967Z,55.50
2022-12-05T15:03:33.499Z,56.20
2022-12-05T15:06:04.162Z,55.50
2022-12-05T15:08:44.477Z,54.20
2022-12-05T15:11:27.424Z,53.70
2022-12-05T15:14:00.043Z,56.80
2022-12-05T15:16:29.412Z,59.00
2022-12-05T15:19:03.141Z,60.50
2022-12-05T15:21:37.652Z,66.40
2022-12-05T15:24:10.135Z,69.90
2022-12-05T15:26:48.479Z,69.70
2022-12-05T15:29:22.513Z,72.00
2022-12-05T15:32:07.554Z,74.70
2022-12-05T15:34:34.028Z,69.10
2022-12-05T15:37:11.530Z,70.20
2022-12-05T15:39:52.901Z,68.80
2022-12-05T15:42:29.214Z,65.00
2022-12-05T15:45:11.253Z,64.00
2022-12-05T15:47:37.969Z,76.30
2022-12-05T15:50:05.607Z,78.60
2022-12-05T15:52:41.135Z,93.90
2022-12-05T15:55:14.998Z,107.20
2022-12-05T15:57:49.658Z,91.80
2022-12-05T16:00:18.420Z,80.50
2022-12-05T16:02:53.200Z,80.40
2022-12-05T16:05:30.488Z,80.70
2022-12-05T16:07:57.367Z,76.10
2022-12-05T16:10:29.367Z,73.00
2022-12-05T16:13:03.957Z,74.80
2022-12-05T16:15:31.180Z,72.90
2022-12-05T16:18:00.609Z,72.50
2022-12-05T16:20:27.235Z,73.60
2022-12-05T16:22:56.406Z,75.60
2022-12-05T16:25:29.245Z,78.70
2022-12-05T16:28:00.562Z,76.00
2022-12-05T16:30:28.118Z,77.00
2022-12-05T16:33:00.776Z,74.80
2022-12-05T16:35:38.988Z,81.70
2022-12-05T16:38:11.585Z,77.60
2022-12-05T16:40:45.334Z,56.70
2022-12-05T16:46:12.547Z,80.30
2022-12-05T16:48:44.135Z,85.10
2022-12-05T16:51:10.548Z,83.50
2022-12-05T16:53:38.664Z,88.30
2022-12-05T16:56:10.399Z,84.40
2022-12-05T16:58:36.868Z,75.40
2022-12-05T17:01:05.582Z,76.00
2022-12-05T17:03:35.456Z,75.50
2022-12-05T17:06:03.605Z,72.60
2022-12-05T17:08:30.122Z,70.10
2022-12-05T17:10:57.263Z,71.80
2022-12-05T17:13:23.992Z,69.80
2022-12-05T17:15:50.609Z,85.20
2022-12-05T17:18:20.064Z,74.80
2022-12-05T17:20:52.641Z,71.20
2022-12-05T17:23:19.604Z,71.30
2022-12-05T17:25:51.861Z,71.90
2022-12-05T17:28:18.893Z,69.20
2022-12-05T17:30:45.870Z,72.20
2022-12-05T17:33:15.301Z,71.60
2022-12-05T17:35:42.151Z,71.10
2022-12-05T17:38:10.091Z,74.30
2022-12-05T17:40:38.312Z,72.20
2022-12-05T17:43:05.869Z,72.00
2022-12-05T17:45:32.821Z,67.70
2022-12-05T17:47:59.359Z,75.20
2022-12-05T17:50:26.064Z,74.50
2022-12-05T17:52:55.359Z,75.60
2022-12-05T17:55:24.915Z,73.50
2022-12-05T17:57:53.469Z,67.10
2022-12-05T18:00:21.520Z,62.40
2022-12-05T18:02:48.025Z,63.00
2022-12-05T18:05:15.397Z,62.90
2022-12-05T18:07:44.101Z,55.90
2022-12-05T18:10:15.384Z,48.00
2022-12-05T18:12:42.339Z,39.30
2022-12-05T18:15:09.456Z,35.10
2022-12-05T18:17:36.037Z,30.70
2022-12-05T18:20:04.071Z,29.60
2022-12-05T18:22:30.666Z,26.80
2022-12-05T18:24:57.670Z,23.70
2022-12-05T18:27:24.627Z,23.60
2022-12-05T18:29:51.109Z,21.60
2022-12-05T18:32:19.106Z,19.30
2022-12-05T18:34:45.808Z,18.50
2022-12-05T18:37:12.846Z,22.50
2022-12-05T18:39:39.375Z,21.20
2022-12-05T18:42:10.355Z,19.90
2022-12-05T18:44:41.299Z,21.70
2022-12-05T18:47:07.794Z,33.10
2022-12-05T18:49:34.347Z,34.90
2022-12-05T18:52:00.782Z,37.50
2022-12-05T18:54:27.242Z,38.60
2022-12-05T18:56:53.804Z,38.00
2022-12-05T18:59:21.374Z,40.90
2022-12-05T19:01:49.187Z,41.50
2022-12-05T19:04:18.441Z,51.00
2022-12-05T19:06:53.276Z,52.10
2022-12-05T19:09:22.953Z,46.40
2022-12-05T19:11:54.232Z,53.70
2022-12-05T19:14:22.064Z,52.60
2022-12-05T19:16:53.658Z,54.40
2022-12-05T19:19:24.534Z,60.80
2022-12-05T19:21:52.872Z,56.60
2022-12-05T19:24:19.423Z,60.70
2022-12-05T19:26:47.401Z,53.70
2022-12-05T19:29:15.284Z,49.40
2022-12-05T19:31:42.854Z,48.30
2022-12-05T19:34:10.012Z,50.00
2022-12-05T19:36:39.900Z,48.80
2022-12-05T19:39:14.142Z,48.00
2022-12-05T19:41:41.306Z,49.50
2022-12-05T19:44:07.830Z,48.80
2022-12-05T19:46:35.130Z,48.60
2022-12-05T19:49:05.049Z,46.40
2022-12-05T19:51:32.704Z,48.10
2022-12-05T19:54:00.803Z,45.30
2022-12-05T19:56:29.225Z,37.80
2022-12-05T19:58:57.499Z,42.20
2022-12-05T20:01:32.940Z,40.60
2022-12-05T20:04:17.785Z,41.10
2022-12-05T20:06:46.908Z,41.60
2022-12-05T20:09:15.643Z,40.50
2022-12-05T20:11:43.909Z,38.10
2022-12-05T20:14:12.321Z,38.50
2022-12-05T20:16:39.231Z,37.30
2022-12-05T20:19:06.038Z,39.30
2022-12-05T20:21:34.666Z,42.20
2022-12-05T20:24:03.176Z,45.50
2022-12-05T20:26:32.758Z,51.10
2022-12-05T20:29:00.009Z,55.10
2022-12-05T20:31:29.790Z,59.40
2022-12-05T20:33:56.806Z,58.50
2022-12-05T20:36:26.666Z,57.20
2022-12-05T20:39:05.809Z,55.80
2022-12-05T20:41:33.354Z,55.70
2022-12-05T20:44:02.237Z,56.60
2022-12-05T20:46:29.339Z,53.20
2022-12-05T20:48:55.946Z,54.60
2022-12-05T20:51:24.003Z,54.20
2022-12-05T20:53:51.358Z,51.30
2022-12-05T20:56:24.614Z,50.10
2022-12-05T20:58:53.365Z,53.20
2022-12-05T21:01:22.643Z,51.40
2022-12-05T21:03:51.363Z,55.20
2022-12-05T21:06:23.813Z,48.00
2022-12-05T21:08:51.684Z,50.00
2022-12-05T21:11:18.849Z,59.30
2022-12-05T21:13:45.823Z,58.50
2022-12-05T21:16:18.427Z,56.30
2022-12-05T21:18:45.972Z,67.50
2022-12-05T21:21:15.431Z,58.70
2022-12-05T21:23:43.591Z,54.90
2022-12-05T21:26:13.317Z,56.70
2022-12-05T21:28:40.949Z,58.90
2022-12-05T21:31:10.863Z,55.40
2022-12-05T21:33:38.002Z,55.70
2022-12-05T21:36:06.018Z,56.00
2022-12-05T21:38:32.492Z,55.10
2022-12-05T21:40:58.974Z,61.10
2022-12-05T21:43:25.516Z,58.70
2022-12-05T21:45:53.590Z,58.80
2022-12-05T21:48:22.376Z,59.80
2022-12-05T21:50:49.809Z,60.10
2022-12-05T21:53:17.519Z,78.00
2022-12-05T21:55:44.657Z,74.50
2022-12-05T21:58:11.203Z,70.10
2022-12-05T22:00:38.309Z,73.00
2022-12-05T22:03:05.935Z,67.80
2022-12-05T22:05:35.040Z,67.60
2022-12-05T22:08:06.321Z,65.30
2022-12-05T22:10:34.368Z,62.70
2022-12-05T22:13:00.880Z,61.50
2022-12-05T22:15:27.344Z,58.70
2022-12-05T22:17:53.763Z,59.00
2022-12-05T22:20:20.170Z,61.20
2022-12-05T22:22:46.819Z,65.70
2022-12-05T22:25:13.411Z,71.00
2022-12-05T22:27:40.199Z,70.30
2022-12-05T22:30:07.336Z,63.90
2022-12-05T22:32:33.755Z,64.90
2022-12-05T22:35:03.768Z,74.10
2022-12-05T22:37:31.093Z,69.20
2022-12-05T22:39:57.968Z,75.20
2022-12-05T22:42:28.006Z,71.40
2022-12-05T22:44:54.445Z,74.50
2022-12-05T22:47:20.935Z,75.10
2022-12-05T22:49:47.485Z,79.10
2022-12-05T22:52:14.667Z,79.50
2022-12-05T22:54:41.067Z,78.10
2022-12-05T22:57:07.604Z,75.10
2022-12-05T22:59:34.014Z,74.80
2022-12-05T23:02:00.454Z,72.60
2022-12-05T23:04:27.022Z,75.00
2022-12-05T23:06:53.484Z,80.50
2022-12-05T23:09:20.538Z,80.40
2022-12-05T23:11:49.949Z,81.40
2022-12-05T23:14:16.465Z,80.60
2022-12-05T23:16:43.097Z,77.60
2022-12-05T23:19:09.685Z,84.00
2022-12-05T23:21:38.985Z,88.00
2022-12-05T23:24:09.099Z,82.40
2022-12-05T23:26:45.632Z,91.40
2022-12-05T23:29:13.331Z,78.10
2022-12-05T23:31:41.259Z,75.20
2022-12-05T23:34:08.391Z,78.60
2022-12-05T23:36:36.297Z,70.80
2022-12-05T23:39:03.518Z,71.10
2022-12-05T23:41:30.191Z,65.70
2022-12-05T23:43:56.842Z,65.60
2022-12-05T23:46:25.534Z,65.00
2022-12-05T23:48:52.436Z,66.00
2022-12-05T23:51:22.089Z,70.70
2022-12-05T23:53:52.962Z,68.00
2022-12-05T23:56:22.692Z,72.10
2022-12-05T23:58:50.160Z,73.50
